createdAt,value
2018-07-15T00:01:32.440Z,19.50
2018-07-15T00:04:01.590Z,19.40
2018-07-15T00:06:30.723Z,19.40
2018-07-15T00:08:59.868Z,19.40
2018-07-15T00:11:28.995Z,19.40
2018-07-15T00:13:58.143Z,19.40
2018-07-15T00:16:27.280Z,19.40
2018-07-15T00:18:56.425Z,19.40
2018-07-15T00:21:25.559Z,19.40
2018-07-15T00:26:23.611Z,19.30
2018-07-15T00:28:52.788Z,19.30
2018-07-15T00:31:21.924Z,19.30
2018-07-15T00:33:51.323Z,19.30
2018-07-15T00:36:20.469Z,19.30
2018-07-15T00:38:49.604Z,19.30
2018-07-15T00:41:18.749Z,19.30
2018-07-15T00:43:47.880Z,19.30
2018-07-15T00:46:17.018Z,19.20
2018-07-15T00:48:46.159Z,19.20
2018-07-15T00:51:15.308Z,19.20
2018-07-15T00:53:44.445Z,19.30
2018-07-15T00:56:13.589Z,19.30
2018-07-15T00:58:42.724Z,19.30
2018-07-15T01:01:11.870Z,19.20
2018-07-15T01:03:41.002Z,19.20
2018-07-15T01:06:10.153Z,19.10
2018-07-15T01:08:39.292Z,19.00
2018-07-15T01:11:08.426Z,19.00
2018-07-15T01:13:37.559Z,18.90
2018-07-15T01:16:06.907Z,18.90
2018-07-15T01:18:36.084Z,18.90
2018-07-15T01:23:34.131Z,18.80
2018-07-15T01:26:03.283Z,18.70
2018-07-15T01:28:32.456Z,18.60
2018-07-15T01:35:59.419Z,18.50
2018-07-15T01:38:28.639Z,18.50
2018-07-15T01:43:26.689Z,18.40
2018-07-15T01:45:55.823Z,18.30
2018-07-15T01:48:24.972Z,18.30
2018-07-15T01:50:54.112Z,18.20
2018-07-15T01:55:52.220Z,18.20
2018-07-15T01:58:21.365Z,18.10
2018-07-15T02:00:50.491Z,18.10
2018-07-15T02:05:48.547Z,17.90
2018-07-15T02:08:17.675Z,17.90
2018-07-15T02:13:15.732Z,17.80
2018-07-15T02:15:44.856Z,17.80
2018-07-15T02:18:13.996Z,17.80
2018-07-15T02:20:43.132Z,17.70
2018-07-15T02:23:12.303Z,17.70
2018-07-15T02:25:41.439Z,17.60
2018-07-15T02:30:39.509Z,17.60
2018-07-15T02:33:08.639Z,17.50
2018-07-15T02:35:37.782Z,17.50
2018-07-15T02:38:06.921Z,17.50
2018-07-15T02:40:36.061Z,17.40
2018-07-15T02:43:05.187Z,17.30
2018-07-15T02:45:34.326Z,17.40
2018-07-15T02:48:03.465Z,17.30
2018-07-15T02:50:32.605Z,17.30
2018-07-15T02:55:30.659Z,17.30
2018-07-15T02:57:59.787Z,17.20
2018-07-15T03:00:29.589Z,17.20
2018-07-15T03:02:59.809Z,17.20
2018-07-15T03:05:28.951Z,17.20
2018-07-15T03:07:58.093Z,17.20
2018-07-15T03:10:27.228Z,17.20
2018-07-15T03:12:56.369Z,17.10
2018-07-15T03:15:25.504Z,17.20
2018-07-15T03:17:54.648Z,17.10
2018-07-15T03:20:23.780Z,17.10
2018-07-15T03:22:52.917Z,17.10
2018-07-15T03:25:22.045Z,17.00
2018-07-15T03:27:51.171Z,17.00
2018-07-15T03:30:20.304Z,16.90
2018-07-15T03:32:49.452Z,16.90
2018-07-15T03:35:18.583Z,16.80
2018-07-15T03:37:47.723Z,16.80
2018-07-15T03:40:16.852Z,16.70
2018-07-15T03:45:15.188Z,16.70
2018-07-15T03:47:44.333Z,16.70
2018-07-15T03:50:13.460Z,16.80
2018-07-15T03:52:42.605Z,16.80
2018-07-15T03:55:11.736Z,16.80
2018-07-15T03:57:41.792Z,16.80
2018-07-15T04:00:10.984Z,16.80
2018-07-15T04:02:40.119Z,16.70
2018-07-15T04:05:09.337Z,16.70
2018-07-15T04:07:38.475Z,16.70
2018-07-15T04:10:07.603Z,16.70
2018-07-15T04:12:36.760Z,16.70
2018-07-15T04:15:05.903Z,16.60
2018-07-15T04:17:35.028Z,16.60
2018-07-15T04:20:04.256Z,16.60
2018-07-15T04:22:33.379Z,16.60
2018-07-15T04:25:02.520Z,16.50
2018-07-15T04:30:00.600Z,16.50
2018-07-15T04:32:29.740Z,16.50
2018-07-15T04:34:58.900Z,16.40
2018-07-15T04:37:28.125Z,16.40
2018-07-15T04:39:57.283Z,16.40
2018-07-15T04:42:26.424Z,16.50
2018-07-15T04:44:55.558Z,16.50
2018-07-15T04:47:24.696Z,16.50
2018-07-15T04:49:53.867Z,16.60
2018-07-15T04:52:23.000Z,16.60
2018-07-15T04:54:52.144Z,16.70
2018-07-15T04:57:21.279Z,16.70
2018-07-15T04:59:50.419Z,16.70
2018-07-15T05:02:19.547Z,16.80
2018-07-15T05:04:48.703Z,16.90
2018-07-15T05:07:17.839Z,16.90
2018-07-15T05:09:46.964Z,17.00
2018-07-15T05:12:16.112Z,17.00
2018-07-15T05:14:45.235Z,17.00
2018-07-15T05:19:43.304Z,17.10
2018-07-15T05:22:12.615Z,17.20
2018-07-15T05:24:41.840Z,17.20
2018-07-15T05:27:10.979Z,17.20
2018-07-15T05:29:40.132Z,17.20
2018-07-15T05:32:09.276Z,17.30
2018-07-15T05:34:38.410Z,17.30
2018-07-15T05:39:36.485Z,17.50
2018-07-15T05:44:34.535Z,17.60
2018-07-15T05:47:03.715Z,17.60
2018-07-15T05:49:32.848Z,17.60
2018-07-15T05:52:02.089Z,17.70
2018-07-15T05:54:31.240Z,17.80
2018-07-15T05:57:00.384Z,17.80
2018-07-15T05:59:29.524Z,17.80
2018-07-15T06:01:58.676Z,17.90
2018-07-15T06:04:27.817Z,18.00
2018-07-15T06:06:56.972Z,18.10
2018-07-15T06:09:26.106Z,18.20
2018-07-15T06:11:55.266Z,18.30
2018-07-15T06:14:24.404Z,18.40
2018-07-15T06:16:53.584Z,18.40
2018-07-15T06:19:22.695Z,18.50
2018-07-15T06:21:51.853Z,18.60
2018-07-15T06:24:26.500Z,18.70
2018-07-15T06:26:55.755Z,18.80
2018-07-15T06:31:53.850Z,19.00
2018-07-15T06:34:23.344Z,19.00
2018-07-15T06:36:52.486Z,19.00
2018-07-15T06:39:21.657Z,19.20
2018-07-15T06:41:50.794Z,19.20
2018-07-15T06:44:19.953Z,19.20
2018-07-15T06:46:49.108Z,19.40
2018-07-15T06:49:18.303Z,19.60
2018-07-15T06:51:47.424Z,19.80
2018-07-15T06:54:16.833Z,20.00
2018-07-15T06:56:45.989Z,20.00
2018-07-15T06:59:15.157Z,20.00
2018-07-15T07:01:44.303Z,20.00
2018-07-15T07:04:13.460Z,19.90
2018-07-15T07:06:42.607Z,20.00
2018-07-15T07:09:11.781Z,20.00
2018-07-15T07:11:40.929Z,20.20
2018-07-15T07:14:10.077Z,20.10
2018-07-15T07:16:39.258Z,20.40
2018-07-15T07:19:08.414Z,20.40
2018-07-15T07:21:37.580Z,20.50
2018-07-15T07:24:06.801Z,20.60
2018-07-15T07:26:35.979Z,20.70
2018-07-15T07:31:34.090Z,21.00
2018-07-15T07:34:03.252Z,21.00
2018-07-15T07:36:32.416Z,21.00
2018-07-15T07:39:01.595Z,21.00
2018-07-15T07:41:30.781Z,21.00
2018-07-15T07:43:59.972Z,21.10
2018-07-15T07:46:29.144Z,21.20
2018-07-15T07:48:58.305Z,21.50
2018-07-15T07:51:27.475Z,21.40
2018-07-15T07:53:56.645Z,21.60
2018-07-15T07:56:25.792Z,21.80
2018-07-15T07:58:54.949Z,22.00
2018-07-15T08:01:24.200Z,22.20
2018-07-15T08:03:53.354Z,22.20
2018-07-15T08:06:22.558Z,22.30
2018-07-15T08:08:51.712Z,22.20
2018-07-15T08:11:20.864Z,22.50
2018-07-15T08:13:50.614Z,22.40
2018-07-15T08:16:19.761Z,22.40
2018-07-15T08:18:48.934Z,22.40
2018-07-15T08:23:47.032Z,22.80
2018-07-15T08:26:16.192Z,22.80
2018-07-15T08:28:45.373Z,22.90
2018-07-15T08:31:16.662Z,22.90
2018-07-15T08:39:11.948Z,23.20
2018-07-15T08:41:41.125Z,23.10
2018-07-15T08:44:10.303Z,23.30
2018-07-15T08:46:39.480Z,23.40
2018-07-15T08:49:08.674Z,23.50
2018-07-15T08:51:37.850Z,23.80
2018-07-15T08:54:07.091Z,24.00
2018-07-15T08:59:05.236Z,24.20
2018-07-15T09:01:34.419Z,24.40
2018-07-15T09:04:03.616Z,24.40
2018-07-15T09:06:32.805Z,24.60
2018-07-15T09:09:01.990Z,24.60
2018-07-15T09:11:31.188Z,24.70
2018-07-15T09:14:00.368Z,24.80
2018-07-15T09:16:29.560Z,24.90
2018-07-15T09:18:58.746Z,25.00
2018-07-15T09:21:27.937Z,25.00
2018-07-15T09:23:57.116Z,25.10
2018-07-15T09:26:26.303Z,25.30
2018-07-15T09:28:55.483Z,25.30
2018-07-15T09:31:24.684Z,25.30
2018-07-15T09:33:53.880Z,25.50
2018-07-15T09:36:23.064Z,25.50
2018-07-15T09:38:52.261Z,25.70
2018-07-15T09:41:21.439Z,25.60
2018-07-15T09:43:50.632Z,25.60
2018-07-15T09:46:19.892Z,25.90
2018-07-15T09:48:49.072Z,26.00
2018-07-15T09:51:18.264Z,26.10
2018-07-15T09:53:47.448Z,26.30
2018-07-15T09:56:16.657Z,26.10
2018-07-15T09:58:45.879Z,25.80
2018-07-15T10:01:15.061Z,25.60
2018-07-15T10:03:44.248Z,25.60
2018-07-15T10:06:13.437Z,25.80
2018-07-15T10:08:42.624Z,26.30
2018-07-15T10:11:11.807Z,26.50
2018-07-15T10:13:40.993Z,26.40
2018-07-15T10:16:10.201Z,26.70
2018-07-15T10:21:08.333Z,26.60
2018-07-15T10:23:37.518Z,26.70
2018-07-15T10:26:06.695Z,26.70
2018-07-15T10:28:35.889Z,26.60
2018-07-15T10:31:05.121Z,26.60
2018-07-15T10:33:34.338Z,26.20
2018-07-15T10:36:03.518Z,26.60
2018-07-15T10:38:32.708Z,26.80
2018-07-15T10:41:01.895Z,27.10
2018-07-15T10:43:31.090Z,27.40
2018-07-15T10:46:00.286Z,27.60
2018-07-15T10:48:29.502Z,27.60
2018-07-15T10:50:58.685Z,27.60
2018-07-15T10:53:27.878Z,28.00
2018-07-15T10:55:57.059Z,27.70
2018-07-15T10:58:26.240Z,27.50
2018-07-15T11:00:55.433Z,27.40
2018-07-15T11:03:24.623Z,27.60
2018-07-15T11:05:53.787Z,28.00
2018-07-15T11:08:22.946Z,28.30
2018-07-15T11:10:52.105Z,28.40
2018-07-15T11:13:21.263Z,28.30
2018-07-15T11:15:50.426Z,28.70
2018-07-15T11:18:19.591Z,28.80
2018-07-15T11:20:48.747Z,28.50
2018-07-15T11:23:17.904Z,28.20
2018-07-15T11:28:15.987Z,28.10
2018-07-15T11:30:45.199Z,28.00
2018-07-15T11:33:14.287Z,28.20
2018-07-15T11:38:12.364Z,28.70
2018-07-15T11:40:41.509Z,29.00
2018-07-15T11:43:10.656Z,28.90
2018-07-15T11:45:39.819Z,28.90
2018-07-15T11:48:09.027Z,29.10
2018-07-15T11:50:38.143Z,29.40
2018-07-15T11:53:07.319Z,28.70
2018-07-15T11:55:36.481Z,29.00
2018-07-15T11:58:05.673Z,29.50
2018-07-15T12:00:34.807Z,29.20
2018-07-15T12:03:03.969Z,29.40
2018-07-15T12:05:33.126Z,29.90
2018-07-15T12:08:02.275Z,30.10
2018-07-15T12:10:31.453Z,30.60
2018-07-15T12:13:00.625Z,31.10
2018-07-15T12:17:58.833Z,29.90
2018-07-15T12:20:28.027Z,29.40
2018-07-15T12:22:57.136Z,29.30
2018-07-15T12:25:26.280Z,29.40
2018-07-15T12:27:55.428Z,29.20
2018-07-15T12:30:24.583Z,28.80
2018-07-15T12:32:53.748Z,28.80
2018-07-15T12:35:22.892Z,28.80
2018-07-15T12:37:52.078Z,29.10
2018-07-15T12:40:21.240Z,27.80
2018-07-15T12:42:50.407Z,27.50
2018-07-15T12:45:19.812Z,27.10
2018-07-15T12:47:48.965Z,26.70
2018-07-15T12:50:18.124Z,27.00
2018-07-15T12:52:47.272Z,27.10
2018-07-15T12:55:16.423Z,27.70
2018-07-15T12:57:45.581Z,27.60
2018-07-15T13:00:14.736Z,28.00
2018-07-15T13:02:43.915Z,28.40
2018-07-15T13:05:13.068Z,28.60
2018-07-15T13:07:42.316Z,28.60
2018-07-15T13:10:11.475Z,28.60
2018-07-15T13:12:40.611Z,28.70
2018-07-15T13:15:09.776Z,28.50
2018-07-15T13:17:39.001Z,28.20
2018-07-15T13:20:08.167Z,27.80
2018-07-15T13:22:37.320Z,27.10
2018-07-15T13:25:06.474Z,26.70
2018-07-15T13:27:35.632Z,26.70
2018-07-15T13:32:33.805Z,27.30
2018-07-15T13:35:02.965Z,27.70
2018-07-15T13:37:32.126Z,27.80
2018-07-15T13:40:01.293Z,27.80
2018-07-15T13:42:30.477Z,27.70
2018-07-15T13:44:59.672Z,27.90
2018-07-15T13:47:28.847Z,27.80
2018-07-15T13:49:58.029Z,27.70
2018-07-15T13:52:27.213Z,27.70
2018-07-15T13:54:56.393Z,27.50
2018-07-15T13:57:25.597Z,27.50
2018-07-15T13:59:54.776Z,27.10
2018-07-15T14:02:23.967Z,26.30
2018-07-15T14:04:53.172Z,26.10
2018-07-15T14:07:22.396Z,25.80
2018-07-15T14:09:51.579Z,25.70
2018-07-15T14:14:49.699Z,25.50
2018-07-15T14:17:18.895Z,25.50
2018-07-15T14:19:48.066Z,25.40
2018-07-15T14:22:17.264Z,25.40
2018-07-15T14:24:46.464Z,25.30
2018-07-15T14:29:44.598Z,25.30
2018-07-15T14:32:13.792Z,25.30
2018-07-15T14:34:42.972Z,25.30
2018-07-15T14:37:12.182Z,25.30
2018-07-15T14:39:41.731Z,25.10
2018-07-15T14:42:10.942Z,25.00
2018-07-15T14:44:40.523Z,25.00
2018-07-15T14:47:09.736Z,24.90
2018-07-15T14:49:38.920Z,24.90
2018-07-15T14:52:08.125Z,24.90
2018-07-15T14:54:37.317Z,25.00
2018-07-15T14:57:06.501Z,24.90
2018-07-15T14:59:35.692Z,24.90
2018-07-15T15:02:04.903Z,24.90
2018-07-15T15:04:34.116Z,24.80
2018-07-15T15:07:03.325Z,24.80
2018-07-15T15:12:01.540Z,24.60
2018-07-15T15:14:30.739Z,24.40
2018-07-15T15:16:59.932Z,23.90
2018-07-15T15:19:29.119Z,23.20
2018-07-15T15:21:58.303Z,22.90
2018-07-15T15:24:27.485Z,22.70
2018-07-15T15:26:56.663Z,22.50
2018-07-15T15:29:26.653Z,22.30
2018-07-15T15:31:55.836Z,22.20
2018-07-15T15:34:25.045Z,22.20
2018-07-15T15:36:54.236Z,22.10
2018-07-15T15:39:23.411Z,22.10
2018-07-15T15:41:52.600Z,22.10
2018-07-15T15:44:21.771Z,22.20
2018-07-15T15:46:50.961Z,22.20
2018-07-15T15:49:20.146Z,22.10
2018-07-15T15:51:49.336Z,22.00
2018-07-15T15:54:18.572Z,21.90
2018-07-15T15:56:47.835Z,21.70
2018-07-15T15:59:17.011Z,21.60
2018-07-15T16:01:46.209Z,21.50
2018-07-15T16:04:15.397Z,21.50
2018-07-15T16:09:13.632Z,21.30
2018-07-15T16:11:42.816Z,21.40
2018-07-15T16:14:12.004Z,21.20
2018-07-15T16:16:41.263Z,20.90
2018-07-15T16:19:10.377Z,20.40
2018-07-15T16:21:39.569Z,20.20
2018-07-15T16:26:37.743Z,19.70
2018-07-15T16:29:07.040Z,19.80
2018-07-15T16:31:36.317Z,19.80
2018-07-15T16:34:05.536Z,20.00
2018-07-15T16:36:34.672Z,20.20
2018-07-15T16:39:04.707Z,20.30
2018-07-15T16:41:33.905Z,20.40
2018-07-15T16:44:03.088Z,20.50
2018-07-15T16:46:32.272Z,20.50
2018-07-15T16:49:01.472Z,20.50
2018-07-15T16:51:30.666Z,20.50
2018-07-15T16:53:59.853Z,20.50
2018-07-15T16:56:29.032Z,20.50
2018-07-15T16:58:58.230Z,20.60
2018-07-15T17:01:27.415Z,20.60
2018-07-15T17:03:56.592Z,20.60
2018-07-15T17:06:25.767Z,20.60
2018-07-15T17:08:54.948Z,20.60
2018-07-15T17:11:24.144Z,20.70
2018-07-15T17:13:53.345Z,20.80
2018-07-15T17:16:22.536Z,20.90
2018-07-15T17:18:51.715Z,21.00
2018-07-15T17:21:20.894Z,20.90
2018-07-15T17:23:50.074Z,20.90
2018-07-15T17:26:19.268Z,20.70
2018-07-15T17:28:48.460Z,20.60
2018-07-15T17:31:17.748Z,20.60
2018-07-15T17:33:46.985Z,20.70
2018-07-15T17:36:16.166Z,20.70
2018-07-15T17:38:45.336Z,20.60
2018-07-15T17:41:14.527Z,20.50
2018-07-15T17:43:44.197Z,20.50
2018-07-15T17:46:13.411Z,20.50
2018-07-15T17:48:42.575Z,20.50
2018-07-15T17:51:11.756Z,20.40
2018-07-15T17:53:40.945Z,20.40
2018-07-15T17:56:10.129Z,20.40
2018-07-15T17:58:39.430Z,20.40
2018-07-15T18:01:08.544Z,20.40
2018-07-15T18:03:37.720Z,20.40
2018-07-15T18:06:06.945Z,20.40
2018-07-15T18:08:36.127Z,20.50
2018-07-15T18:11:05.339Z,20.50
2018-07-15T18:13:34.553Z,20.60
2018-07-15T18:16:03.818Z,20.60
2018-07-15T18:18:32.966Z,20.60
2018-07-15T18:21:02.155Z,20.60
2018-07-15T18:23:31.345Z,20.70
2018-07-15T18:26:00.535Z,20.70
2018-07-15T18:28:29.725Z,20.60
2018-07-15T18:30:58.911Z,20.70
2018-07-15T18:33:28.118Z,20.70
2018-07-15T18:35:57.297Z,20.70
2018-07-15T18:38:26.591Z,20.80
2018-07-15T18:40:55.877Z,20.80
2018-07-15T18:43:25.617Z,20.90
2018-07-15T18:45:54.748Z,20.90
2018-07-15T18:48:24.090Z,20.90
2018-07-15T18:50:53.277Z,20.90
2018-07-15T18:53:22.498Z,20.90
2018-07-15T18:55:51.704Z,20.80
2018-07-15T18:58:21.036Z,20.80
2018-07-15T19:00:50.247Z,20.80
2018-07-15T19:05:48.750Z,20.70
2018-07-15T19:10:47.028Z,20.60
2018-07-15T19:13:16.276Z,20.70
2018-07-15T19:15:45.550Z,20.60
2018-07-15T19:18:14.890Z,20.60
2018-07-15T19:20:44.172Z,20.60
2018-07-15T19:23:13.485Z,20.60
2018-07-15T19:25:42.875Z,20.50
2018-07-15T19:28:12.093Z,20.50
2018-07-15T19:30:41.267Z,20.50
2018-07-15T19:33:10.452Z,20.50
2018-07-15T19:35:39.667Z,20.30
2018-07-15T19:38:08.857Z,20.30
2018-07-15T19:40:38.135Z,20.20
2018-07-15T19:43:07.389Z,20.30
2018-07-15T19:45:36.678Z,20.20
2018-07-15T19:48:06.077Z,20.20
2018-07-15T19:50:35.337Z,20.20
2018-07-15T19:55:33.432Z,20.00
2018-07-15T19:58:02.712Z,20.10
2018-07-15T20:03:01.203Z,20.10
2018-07-15T20:05:30.404Z,20.00
2018-07-15T20:10:29.013Z,19.90
2018-07-15T20:12:58.423Z,19.80
2018-07-15T20:15:27.614Z,19.70
2018-07-15T20:17:57.106Z,19.70
2018-07-15T20:20:26.264Z,19.70
2018-07-15T20:22:55.640Z,19.70
2018-07-15T20:25:24.940Z,19.70
2018-07-15T20:27:54.179Z,19.70
2018-07-15T20:30:23.524Z,19.70
2018-07-15T20:32:52.883Z,19.70
2018-07-15T20:35:22.120Z,19.70
2018-07-15T20:42:49.397Z,19.60
2018-07-15T20:45:18.714Z,19.60
2018-07-15T20:47:48.076Z,19.60
2018-07-15T20:50:17.400Z,19.60
2018-07-15T20:52:46.630Z,19.60
2018-07-15T20:55:15.896Z,19.60
2018-07-15T20:57:45.149Z,19.50
2018-07-15T21:00:14.444Z,19.50
2018-07-15T21:02:43.641Z,19.50
2018-07-15T21:05:12.763Z,19.40
2018-07-15T21:07:41.960Z,19.50
2018-07-15T21:10:11.131Z,19.50
2018-07-15T21:12:40.327Z,19.40
2018-07-15T21:15:09.526Z,19.40
2018-07-15T21:17:38.704Z,19.30
2018-07-15T21:20:07.908Z,19.00
2018-07-15T21:22:37.093Z,18.80
2018-07-15T21:25:06.284Z,18.80
2018-07-15T21:27:35.468Z,18.70
2018-07-15T21:32:33.753Z,18.50
2018-07-15T21:37:31.879Z,18.40
2018-07-15T21:40:01.057Z,18.30
2018-07-15T21:42:30.336Z,18.20
2018-07-15T21:44:59.518Z,18.30
2018-07-15T21:47:28.700Z,18.40
2018-07-15T21:49:57.871Z,18.40
2018-07-15T21:52:27.063Z,18.40
2018-07-15T21:54:56.227Z,18.40
2018-07-15T21:59:54.384Z,18.30
2018-07-15T22:02:23.568Z,18.30
2018-07-15T22:04:52.757Z,18.20
2018-07-15T22:07:38.949Z,18.20
2018-07-15T22:10:29.707Z,18.20
2018-07-15T22:12:58.871Z,18.20
2018-07-15T22:15:28.044Z,18.20
2018-07-15T22:17:57.240Z,18.20
2018-07-15T22:20:26.436Z,18.30
2018-07-15T22:22:55.628Z,18.30
2018-07-15T22:25:24.822Z,18.30
2018-07-15T22:27:53.997Z,18.20
2018-07-15T22:32:52.181Z,18.20
2018-07-15T22:37:50.324Z,18.30
2018-07-15T22:40:19.528Z,18.30
2018-07-15T22:42:48.704Z,18.40
2018-07-15T22:45:17.896Z,18.40
2018-07-15T22:47:47.105Z,18.30
2018-07-15T22:50:16.290Z,18.30
2018-07-15T22:52:45.477Z,18.30
2018-07-15T22:55:14.672Z,18.20
2018-07-15T22:57:43.881Z,18.20
2018-07-15T23:00:13.142Z,18.20
2018-07-15T23:02:42.333Z,18.30
2018-07-15T23:05:56.976Z,18.30
2018-07-15T23:08:27.327Z,18.30
2018-07-15T23:10:56.543Z,18.30
2018-07-15T23:13:25.743Z,18.20
2018-07-15T23:15:54.938Z,18.10
2018-07-15T23:18:24.126Z,18.20
2018-07-15T23:23:22.255Z,18.30
2018-07-15T23:25:51.454Z,18.40
2018-07-15T23:28:20.641Z,18.40
2018-07-15T23:30:49.823Z,18.40
2018-07-15T23:33:19.008Z,18.40
2018-07-15T23:35:48.196Z,18.30
2018-07-15T23:38:17.396Z,18.20
2018-07-15T23:40:46.582Z,18.20
2018-07-15T23:43:15.778Z,18.20
2018-07-15T23:45:44.956Z,18.20
2018-07-15T23:48:14.148Z,18.30
2018-07-15T23:50:43.332Z,18.20
2018-07-15T23:53:12.549Z,18.20
2018-07-15T23:55:41.745Z,18.10
2018-07-15T23:58:10.949Z,18.10
